createdAt,value
2023-03-17T00:02:05.752Z,3.03
2023-03-17T00:04:32.988Z,2.70
2023-03-17T00:06:59.787Z,2.40
2023-03-17T00:09:26.574Z,2.90
2023-03-17T00:11:53.372Z,2.22
2023-03-17T00:14:19.888Z,2.17
2023-03-17T00:16:49.769Z,2.30
2023-03-17T00:19:17.363Z,2.13
2023-03-17T00:21:43.961Z,2.40
2023-03-17T00:24:12.911Z,2.45
2023-03-17T00:26:41.176Z,2.28
2023-03-17T00:29:08.460Z,2.45
2023-03-17T00:31:34.944Z,2.38
2023-03-17T00:34:01.420Z,2.40
2023-03-17T00:36:30.334Z,2.35
2023-03-17T00:38:57.287Z,2.67
2023-03-17T00:41:23.764Z,2.28
2023-03-17T00:43:50.757Z,2.45
2023-03-17T00:46:21.717Z,2.50
2023-03-17T00:48:48.981Z,2.45
2023-03-17T00:51:18.057Z,2.97
2023-03-17T00:53:44.433Z,2.60
2023-03-17T00:56:13.341Z,2.42
2023-03-17T00:58:40.099Z,2.33
2023-03-17T01:01:06.465Z,2.60
2023-03-17T01:03:33.127Z,2.42
2023-03-17T01:05:59.988Z,2.35
2023-03-17T01:08:26.680Z,2.42
2023-03-17T01:10:53.100Z,2.50
2023-03-17T01:13:19.478Z,2.67
2023-03-17T01:15:47.070Z,2.50
2023-03-17T01:18:14.527Z,2.33
2023-03-17T01:20:40.936Z,2.50
2023-03-17T01:23:07.299Z,2.55
2023-03-17T01:25:33.771Z,2.42
2023-03-17T01:28:00.134Z,2.30
2023-03-17T01:30:32.371Z,2.40
2023-03-17T01:32:59.131Z,2.25
2023-03-17T01:35:26.762Z,2.47
2023-03-17T01:37:53.271Z,2.40
2023-03-17T01:40:21.085Z,2.25
2023-03-17T01:42:49.744Z,2.72
2023-03-17T01:45:35.142Z,2.50
2023-03-17T01:48:01.652Z,2.50
2023-03-17T01:50:28.118Z,2.45
2023-03-17T01:52:54.540Z,2.60
2023-03-17T01:55:21.346Z,2.53
2023-03-17T01:57:53.424Z,2.63
2023-03-17T02:00:21.295Z,2.40
2023-03-17T02:02:50.075Z,2.42
2023-03-17T02:05:17.850Z,2.40
2023-03-17T02:07:45.152Z,2.22
2023-03-17T02:10:12.818Z,2.22
2023-03-17T02:12:40.569Z,2.67
2023-03-17T02:15:07.944Z,2.70
2023-03-17T02:17:34.479Z,2.42
2023-03-17T02:20:15.963Z,2.67
2023-03-17T02:22:46.590Z,2.67
2023-03-17T02:25:14.033Z,2.50
2023-03-17T02:27:45.381Z,2.55
2023-03-17T02:30:13.462Z,2.75
2023-03-17T02:32:39.868Z,2.40
2023-03-17T02:35:07.159Z,2.60
2023-03-17T02:37:33.484Z,2.42
2023-03-17T02:40:01.627Z,2.47
2023-03-17T02:42:28.589Z,2.45
2023-03-17T02:44:54.956Z,2.70
2023-03-17T02:47:22.041Z,2.92
2023-03-17T02:49:49.196Z,2.83
2023-03-17T02:52:15.519Z,2.60
2023-03-17T02:54:42.711Z,2.50
2023-03-17T02:57:09.130Z,2.60
2023-03-17T02:59:36.085Z,2.65
2023-03-17T03:02:02.852Z,2.80
2023-03-17T03:04:29.666Z,2.60
2023-03-17T03:06:56.928Z,2.63
2023-03-17T03:09:24.171Z,2.97
2023-03-17T03:11:50.639Z,2.88
2023-03-17T03:14:17.028Z,2.78
2023-03-17T03:16:43.633Z,3.00
2023-03-17T03:19:10.101Z,2.88
2023-03-17T03:21:37.113Z,2.60
2023-03-17T03:24:03.688Z,2.72
2023-03-17T03:26:30.010Z,2.70
2023-03-17T03:28:57.397Z,2.67
2023-03-17T03:31:24.265Z,2.75
2023-03-17T03:33:50.710Z,2.80
2023-03-17T03:36:17.843Z,2.88
2023-03-17T03:38:44.324Z,2.72
2023-03-17T03:41:11.176Z,3.15
2023-03-17T03:43:37.527Z,3.40
2023-03-17T03:46:04.524Z,3.40
2023-03-17T03:48:31.263Z,3.17
2023-03-17T03:50:58.316Z,2.92
2023-03-17T03:53:24.893Z,3.58
2023-03-17T03:55:51.278Z,3.08
2023-03-17T03:58:17.785Z,2.83
2023-03-17T04:00:44.231Z,3.25
2023-03-17T04:03:10.608Z,3.05
2023-03-17T04:05:36.967Z,3.20
2023-03-17T04:08:03.365Z,2.95
2023-03-17T04:10:30.160Z,3.20
2023-03-17T04:12:56.698Z,3.10
2023-03-17T04:15:23.050Z,2.80
2023-03-17T04:17:49.366Z,3.08
2023-03-17T04:20:16.974Z,3.33
2023-03-17T04:22:43.866Z,3.47
2023-03-17T04:25:12.275Z,3.88
2023-03-17T04:27:38.621Z,3.60
2023-03-17T04:30:06.013Z,3.67
2023-03-17T04:32:32.386Z,3.72
2023-03-17T04:34:58.831Z,3.30
2023-03-17T04:37:25.728Z,3.60
2023-03-17T04:39:52.172Z,3.28
2023-03-17T04:42:18.509Z,3.08
2023-03-17T04:44:44.905Z,3.08
2023-03-17T04:47:11.293Z,3.25
2023-03-17T04:49:37.666Z,2.75
2023-03-17T04:52:04.107Z,3.00
2023-03-17T04:54:30.421Z,3.25
2023-03-17T04:56:57.916Z,3.20
2023-03-17T04:59:24.338Z,3.20
2023-03-17T05:01:51.296Z,3.50
2023-03-17T05:04:30.716Z,2.70
2023-03-17T05:06:59.610Z,3.83
2023-03-17T05:09:26.858Z,2.80
2023-03-17T05:11:53.373Z,3.20
2023-03-17T05:14:19.726Z,3.40
2023-03-17T05:16:49.227Z,2.97
2023-03-17T05:19:16.513Z,2.95
2023-03-17T05:21:42.943Z,3.05
2023-03-17T05:24:09.281Z,3.47
2023-03-17T05:26:35.717Z,3.53
2023-03-17T05:29:02.250Z,3.30
2023-03-17T05:31:28.648Z,2.95
2023-03-17T05:33:55.251Z,3.05
2023-03-17T05:36:22.206Z,3.13
2023-03-17T05:38:48.694Z,2.92
2023-03-17T05:41:15.742Z,3.20
2023-03-17T05:43:43.453Z,2.72
2023-03-17T05:46:11.279Z,3.05
2023-03-17T05:48:37.692Z,2.87
2023-03-17T05:51:04.800Z,2.80
2023-03-17T05:53:31.233Z,3.60
2023-03-17T05:55:57.839Z,3.30
2023-03-17T05:58:24.240Z,3.03
2023-03-17T06:00:51.047Z,2.92
2023-03-17T06:03:17.460Z,3.08
2023-03-17T06:05:43.857Z,3.00
2023-03-17T06:08:10.521Z,3.20
2023-03-17T06:10:36.849Z,3.10
2023-03-17T06:13:04.456Z,2.72
2023-03-17T06:15:31.372Z,3.03
2023-03-17T06:17:57.853Z,3.40
2023-03-17T06:20:24.220Z,3.40
2023-03-17T06:23:03.203Z,3.42
2023-03-17T06:25:30.366Z,3.35
2023-03-17T06:27:57.586Z,3.20
2023-03-17T06:30:23.906Z,3.78
2023-03-17T06:32:50.414Z,3.80
2023-03-17T06:35:17.997Z,3.55
2023-03-17T06:37:44.340Z,3.83
2023-03-17T06:40:11.285Z,4.32
2023-03-17T06:42:37.609Z,4.28
2023-03-17T06:45:04.071Z,3.10
2023-03-17T06:47:30.707Z,3.10
2023-03-17T06:49:57.015Z,3.05
2023-03-17T06:52:23.319Z,3.08
2023-03-17T06:54:49.632Z,2.83
2023-03-17T06:57:15.952Z,2.80
2023-03-17T06:59:42.384Z,3.10
2023-03-17T07:02:10.560Z,2.67
2023-03-17T07:04:38.215Z,3.08
2023-03-17T07:07:05.627Z,2.92
2023-03-17T07:09:34.356Z,3.10
2023-03-17T07:12:04.871Z,3.17
2023-03-17T07:14:32.462Z,3.22
2023-03-17T07:16:58.778Z,3.00
2023-03-17T07:19:25.241Z,3.58
2023-03-17T07:21:51.585Z,3.42
2023-03-17T07:24:18.161Z,2.95
2023-03-17T07:26:44.585Z,2.70
2023-03-17T07:29:10.916Z,2.90
2023-03-17T07:31:38.717Z,3.00
2023-03-17T07:34:06.591Z,2.97
2023-03-17T07:36:34.595Z,3.00
2023-03-17T07:39:03.976Z,2.92
2023-03-17T07:41:30.428Z,3.10
2023-03-17T07:43:57.361Z,2.80
2023-03-17T07:46:23.866Z,3.25
2023-03-17T07:48:50.488Z,3.13
2023-03-17T07:51:18.997Z,2.90
2023-03-17T07:53:46.383Z,2.70
2023-03-17T07:56:13.169Z,3.08
2023-03-17T07:58:40.300Z,2.80
2023-03-17T08:01:06.910Z,3.10
2023-03-17T08:03:33.364Z,2.70
2023-03-17T08:06:00.740Z,2.80
2023-03-17T08:08:28.146Z,3.15
2023-03-17T08:10:58.729Z,3.10
2023-03-17T08:13:25.923Z,2.72
2023-03-17T08:15:52.923Z,3.25
2023-03-17T08:18:19.565Z,2.88
2023-03-17T08:20:45.940Z,2.78
2023-03-17T08:23:13.020Z,2.60
2023-03-17T08:25:39.471Z,2.70
2023-03-17T08:28:05.799Z,2.40
2023-03-17T08:30:33.798Z,2.78
2023-03-17T08:33:00.357Z,2.60
2023-03-17T08:35:27.171Z,2.90
2023-03-17T08:37:56.099Z,3.22
2023-03-17T08:40:23.018Z,2.60
2023-03-17T08:42:49.340Z,2.78
2023-03-17T08:45:16.485Z,2.40
2023-03-17T08:47:42.781Z,2.78
2023-03-17T08:50:11.342Z,2.60
2023-03-17T08:52:37.905Z,2.45
2023-03-17T08:55:04.409Z,2.90
2023-03-17T08:57:30.718Z,2.45
2023-03-17T08:59:57.022Z,2.50
2023-03-17T09:02:23.500Z,2.50
2023-03-17T09:04:49.844Z,2.47
2023-03-17T09:07:17.031Z,2.60
2023-03-17T09:09:43.508Z,3.35
2023-03-17T09:12:10.075Z,3.10
2023-03-17T09:14:43.373Z,2.30
2023-03-17T09:17:11.165Z,2.15
2023-03-17T09:19:38.763Z,2.35
2023-03-17T09:22:05.225Z,2.13
2023-03-17T09:24:31.858Z,2.40
2023-03-17T09:26:59.935Z,2.75
2023-03-17T09:29:26.408Z,2.22
2023-03-17T09:31:53.924Z,2.55
2023-03-17T09:34:20.239Z,2.60
2023-03-17T09:36:46.544Z,2.47
2023-03-17T09:39:12.894Z,2.22
2023-03-17T09:41:47.464Z,2.47
2023-03-17T09:44:13.958Z,2.50
2023-03-17T09:46:43.136Z,2.58
2023-03-17T09:49:14.352Z,2.75
2023-03-17T09:51:40.786Z,3.15
2023-03-17T09:54:16.128Z,2.13
2023-03-17T09:56:46.054Z,2.42
2023-03-17T09:59:31.264Z,2.50
2023-03-17T10:01:57.729Z,2.17
2023-03-17T10:04:24.331Z,2.60
2023-03-17T10:06:51.979Z,2.60
2023-03-17T10:09:26.182Z,2.28
2023-03-17T10:12:02.366Z,2.42
2023-03-17T10:14:31.508Z,2.55
2023-03-17T10:17:03.976Z,2.28
2023-03-17T10:19:40.336Z,2.47
2023-03-17T10:22:27.094Z,2.65
2023-03-17T10:24:56.880Z,2.45
2023-03-17T10:27:23.280Z,2.70
2023-03-17T10:29:49.722Z,2.70
2023-03-17T10:32:16.113Z,2.55
2023-03-17T10:34:42.835Z,2.33
2023-03-17T10:37:13.064Z,2.17
2023-03-17T10:39:47.328Z,2.22
2023-03-17T10:42:21.887Z,2.40
2023-03-17T10:44:54.350Z,2.40
2023-03-17T10:47:24.139Z,2.55
2023-03-17T10:49:52.982Z,2.10
2023-03-17T10:52:21.367Z,2.17
2023-03-17T10:54:49.170Z,2.50
2023-03-17T10:57:15.814Z,2.47
2023-03-17T10:59:46.130Z,2.67
2023-03-17T11:02:29.386Z,2.15
2023-03-17T11:05:19.453Z,2.38
2023-03-17T11:07:45.854Z,2.13
2023-03-17T11:10:25.941Z,2.40
2023-03-17T11:12:58.895Z,3.03
2023-03-17T11:15:29.519Z,3.60
2023-03-17T11:18:00.858Z,2.95
2023-03-17T11:20:27.542Z,2.40
2023-03-17T11:22:59.889Z,2.20
2023-03-17T11:25:27.277Z,3.25
2023-03-17T11:28:05.726Z,2.78
2023-03-17T11:30:35.612Z,2.72
2023-03-17T11:33:10.790Z,2.60
2023-03-17T11:35:44.100Z,2.33
2023-03-17T11:38:13.828Z,2.15
2023-03-17T11:40:59.048Z,2.38
2023-03-17T11:43:48.403Z,2.50
2023-03-17T11:46:27.063Z,2.40
2023-03-17T11:48:53.461Z,2.47
2023-03-17T11:51:27.413Z,2.30
2023-03-17T11:53:56.478Z,2.03
2023-03-17T11:56:22.797Z,2.22
2023-03-17T11:58:56.260Z,2.53
2023-03-17T12:01:28.928Z,2.10
2023-03-17T12:04:16.425Z,1.98
2023-03-17T12:06:44.697Z,1.98
2023-03-17T12:09:13.733Z,2.28
2023-03-17T12:11:41.488Z,2.15
2023-03-17T12:14:19.973Z,2.15
2023-03-17T12:17:05.384Z,2.33
2023-03-17T12:19:40.929Z,2.17
2023-03-17T12:22:13.358Z,2.30
2023-03-17T12:24:48.036Z,2.42
2023-03-17T12:27:27.164Z,2.28
2023-03-17T12:30:08.445Z,2.10
2023-03-17T12:32:34.832Z,2.20
2023-03-17T12:35:27.902Z,2.30
2023-03-17T12:37:55.710Z,3.17
2023-03-17T12:40:37.074Z,2.60
2023-03-17T12:43:21.957Z,2.30
2023-03-17T12:46:06.892Z,2.00
2023-03-17T12:48:33.698Z,2.50
2023-03-17T12:51:06.728Z,2.78
2023-03-17T12:53:34.527Z,2.75
2023-03-17T12:56:10.774Z,2.33
2023-03-17T12:58:38.848Z,2.17
2023-03-17T13:01:34.730Z,2.30
2023-03-17T13:04:01.242Z,2.10
2023-03-17T13:06:30.193Z,2.17
2023-03-17T13:08:56.729Z,2.17
2023-03-17T13:11:26.059Z,2.13
2023-03-17T13:14:11.603Z,2.15
2023-03-17T13:16:40.921Z,2.05
2023-03-17T13:19:15.122Z,2.10
2023-03-17T13:21:46.242Z,2.08
2023-03-17T13:24:22.476Z,2.40
2023-03-17T13:26:56.391Z,2.38
2023-03-17T13:29:37.489Z,2.55
2023-03-17T13:32:30.232Z,2.22
2023-03-17T13:35:19.911Z,2.40
2023-03-17T13:37:46.215Z,2.17
2023-03-17T13:40:15.564Z,2.28
2023-03-17T13:43:00.192Z,2.20
2023-03-17T13:45:32.844Z,1.90
2023-03-17T13:48:19.236Z,2.00
2023-03-17T13:50:46.642Z,2.10
2023-03-17T13:53:13.623Z,1.90
2023-03-17T13:55:41.534Z,2.10
2023-03-17T13:58:10.903Z,2.05
2023-03-17T14:00:39.488Z,1.48
2023-03-17T14:03:21.661Z,1.90
2023-03-17T14:05:49.348Z,1.90
2023-03-17T14:08:15.826Z,1.70
2023-03-17T14:10:44.184Z,1.35
2023-03-17T14:13:20.517Z,1.30
2023-03-17T14:15:48.100Z,1.52
2023-03-17T14:18:16.349Z,1.13
2023-03-17T14:20:52.954Z,1.50
2023-03-17T14:23:19.439Z,1.90
2023-03-17T14:25:45.972Z,1.70
2023-03-17T14:28:13.805Z,1.40
2023-03-17T14:30:40.332Z,1.45
2023-03-17T14:33:22.053Z,1.60
2023-03-17T14:35:50.324Z,1.38
2023-03-17T14:38:22.833Z,1.38
2023-03-17T14:40:50.188Z,1.30
2023-03-17T14:43:16.875Z,1.30
2023-03-17T14:45:53.749Z,1.50
2023-03-17T14:48:23.166Z,1.70
2023-03-17T14:51:05.420Z,1.52
2023-03-17T14:53:36.120Z,1.52
2023-03-17T14:56:04.277Z,1.70
2023-03-17T14:58:31.849Z,1.60
2023-03-17T15:01:08.936Z,1.40
2023-03-17T15:03:38.987Z,1.45
2023-03-17T15:06:26.660Z,1.30
2023-03-17T15:08:53.581Z,1.40
2023-03-17T15:11:21.834Z,1.40
2023-03-17T15:13:50.100Z,1.40
2023-03-17T15:16:16.439Z,1.33
2023-03-17T15:18:43.131Z,1.70
2023-03-17T15:21:29.372Z,1.65
2023-03-17T15:23:55.793Z,1.45
2023-03-17T15:26:28.163Z,1.30
2023-03-17T15:28:54.543Z,1.70
2023-03-17T15:31:23.544Z,1.65
2023-03-17T15:33:50.342Z,1.67
2023-03-17T15:36:31.278Z,1.65
2023-03-17T15:38:58.487Z,1.52
2023-03-17T15:41:24.882Z,1.70
2023-03-17T15:43:51.375Z,3.80
2023-03-17T15:46:27.814Z,1.70
2023-03-17T15:48:54.289Z,1.83
2023-03-17T15:51:20.839Z,1.52
2023-03-17T15:53:47.407Z,1.80
2023-03-17T15:56:21.185Z,1.60
2023-03-17T16:04:20.679Z,1.58
2023-03-17T16:06:49.100Z,1.80
2023-03-17T16:09:16.922Z,2.05
2023-03-17T16:11:45.813Z,1.63
2023-03-17T16:14:12.584Z,1.60
2023-03-17T16:16:41.392Z,1.90
2023-03-17T16:19:20.981Z,1.60
2023-03-17T16:21:47.741Z,1.75
2023-03-17T16:24:22.123Z,1.90
2023-03-17T16:26:49.395Z,2.15
2023-03-17T16:29:16.763Z,1.85
2023-03-17T16:31:44.961Z,1.67
2023-03-17T16:34:22.342Z,1.60
2023-03-17T16:36:53.391Z,1.30
2023-03-17T16:39:23.220Z,1.58
2023-03-17T16:41:50.109Z,1.63
2023-03-17T16:44:18.687Z,1.80
2023-03-17T16:46:45.262Z,1.60
2023-03-17T16:49:16.129Z,1.67
2023-03-17T16:51:42.927Z,1.40
2023-03-17T16:54:09.715Z,1.58
2023-03-17T16:56:36.756Z,2.08
2023-03-17T16:59:04.693Z,1.60
2023-03-17T17:01:33.043Z,1.70
2023-03-17T17:04:02.027Z,2.20
2023-03-17T17:06:29.150Z,1.90
2023-03-17T17:08:56.822Z,1.60
2023-03-17T17:11:28.604Z,1.60
2023-03-17T17:13:56.219Z,1.40
2023-03-17T17:16:28.162Z,1.98
2023-03-17T17:18:54.704Z,2.17
2023-03-17T17:21:21.373Z,1.90
2023-03-17T17:23:47.786Z,2.58
2023-03-17T17:26:14.431Z,1.40
2023-03-17T17:28:41.394Z,1.90
2023-03-17T17:31:08.647Z,1.80
2023-03-17T17:33:36.148Z,1.90
2023-03-17T17:36:04.306Z,1.67
2023-03-17T17:38:31.094Z,1.60
2023-03-17T17:40:58.853Z,1.80
2023-03-17T17:43:26.097Z,1.73
2023-03-17T17:45:53.025Z,1.88
2023-03-17T17:48:22.485Z,2.00
2023-03-17T17:50:49.160Z,2.13
2023-03-17T17:53:15.724Z,1.90
2023-03-17T17:55:43.125Z,2.00
2023-03-17T17:58:12.706Z,2.00
2023-03-17T18:00:39.292Z,4.03
2023-03-17T18:03:05.803Z,1.80
2023-03-17T18:05:32.414Z,2.88
2023-03-17T18:07:59.974Z,2.22
2023-03-17T18:10:27.338Z,2.25
2023-03-17T18:12:54.296Z,2.28
2023-03-17T18:15:22.045Z,2.17
2023-03-17T18:17:48.849Z,1.80
2023-03-17T18:20:17.123Z,2.28
2023-03-17T18:22:43.704Z,2.25
2023-03-17T18:25:11.303Z,1.98
2023-03-17T18:27:39.114Z,1.80
2023-03-17T18:30:06.352Z,1.73
2023-03-17T18:32:33.609Z,1.70
2023-03-17T18:35:02.826Z,1.80
2023-03-17T18:37:30.868Z,1.80
2023-03-17T18:40:12.590Z,1.50
2023-03-17T18:42:41.152Z,1.98
2023-03-17T18:45:09.698Z,1.92
2023-03-17T18:47:37.659Z,2.25
2023-03-17T18:50:04.870Z,2.03
2023-03-17T18:52:32.270Z,2.22
2023-03-17T18:54:59.220Z,2.28
2023-03-17T18:57:26.267Z,2.10
2023-03-17T18:59:52.606Z,2.42
2023-03-17T19:02:19.031Z,2.30
2023-03-17T19:04:47.671Z,1.95
2023-03-17T19:07:14.690Z,2.13
2023-03-17T19:09:41.391Z,2.50
2023-03-17T19:12:08.204Z,1.80
2023-03-17T19:14:36.253Z,2.30
2023-03-17T19:17:03.311Z,2.15
2023-03-17T19:19:30.018Z,2.20
2023-03-17T19:21:56.680Z,2.13
2023-03-17T19:24:23.374Z,2.22
2023-03-17T19:26:49.711Z,2.10
2023-03-17T19:29:16.912Z,2.08
2023-03-17T19:31:43.327Z,3.05
2023-03-17T19:34:11.319Z,2.70
2023-03-17T19:36:41.925Z,2.47
2023-03-17T19:39:09.666Z,2.00
2023-03-17T19:41:36.025Z,2.08
2023-03-17T19:44:02.843Z,2.70
2023-03-17T19:46:29.713Z,2.15
2023-03-17T19:48:59.216Z,2.85
2023-03-17T19:51:27.293Z,2.90
2023-03-17T19:53:54.305Z,2.50
2023-03-17T19:56:23.088Z,2.78
2023-03-17T19:58:49.608Z,3.33
2023-03-17T20:01:17.023Z,2.90
2023-03-17T20:03:43.889Z,3.20
2023-03-17T20:06:10.838Z,3.22
2023-03-17T20:08:37.903Z,3.35
2023-03-17T20:11:05.981Z,3.08
2023-03-17T20:13:33.199Z,3.72
2023-03-17T20:15:59.851Z,3.45
2023-03-17T20:18:26.236Z,3.40
2023-03-17T20:20:53.526Z,3.20
2023-03-17T20:23:20.276Z,2.90
2023-03-17T20:25:46.962Z,3.17
2023-03-17T20:28:13.369Z,3.25
2023-03-17T20:30:40.540Z,3.35
2023-03-17T20:33:08.274Z,3.30
2023-03-17T20:35:35.059Z,3.33
2023-03-17T20:38:02.309Z,3.50
2023-03-17T20:40:29.148Z,3.90
2023-03-17T20:42:55.919Z,3.33
2023-03-17T20:45:23.636Z,3.72
2023-03-17T20:47:50.907Z,3.53
2023-03-17T20:50:17.579Z,3.95
2023-03-17T20:52:44.641Z,3.72
2023-03-17T20:55:14.468Z,3.80
2023-03-17T20:57:41.791Z,4.03
2023-03-17T21:00:12.612Z,3.97
2023-03-17T21:02:39.094Z,3.35
2023-03-17T21:05:07.625Z,4.03
2023-03-17T21:07:34.281Z,4.60
2023-03-17T21:10:02.126Z,3.63
2023-03-17T21:12:28.850Z,4.53
2023-03-17T21:14:55.829Z,4.65
2023-03-17T21:17:22.842Z,4.18
2023-03-17T21:19:49.315Z,3.75
2023-03-17T21:22:16.155Z,3.83
2023-03-17T21:24:42.808Z,3.75
2023-03-17T21:27:11.368Z,3.80
2023-03-17T21:29:38.617Z,3.58
2023-03-17T21:32:05.635Z,3.92
2023-03-17T21:34:32.368Z,3.67
2023-03-17T21:36:59.420Z,3.83
2023-03-17T21:39:29.275Z,3.45
2023-03-17T21:41:56.236Z,4.07
2023-03-17T21:44:22.664Z,3.67
2023-03-17T21:46:51.042Z,3.78
2023-03-17T21:49:18.720Z,3.97
2023-03-17T21:51:46.677Z,3.95
2023-03-17T21:54:13.892Z,3.60
2023-03-17T21:56:41.912Z,3.92
2023-03-17T21:59:11.402Z,4.38
2023-03-17T22:01:39.010Z,4.15
2023-03-17T22:04:05.483Z,3.88
2023-03-17T22:06:32.968Z,3.58
2023-03-17T22:11:58.162Z,4.75
2023-03-17T22:14:24.571Z,5.18
2023-03-17T22:16:51.372Z,5.15
2023-03-17T22:19:25.292Z,4.65
2023-03-17T22:21:51.805Z,5.50
2023-03-17T22:24:18.375Z,5.28
2023-03-17T22:26:44.840Z,5.43
2023-03-17T22:29:11.250Z,5.10
2023-03-17T22:31:37.865Z,5.50
2023-03-17T22:34:04.321Z,5.38
2023-03-17T22:36:31.592Z,5.35
2023-03-17T22:38:59.185Z,5.70
2023-03-17T22:41:28.140Z,5.97
2023-03-17T22:43:54.649Z,5.40
2023-03-17T22:46:21.640Z,5.25
2023-03-17T22:48:48.380Z,5.18
2023-03-17T22:51:18.081Z,5.47
2023-03-17T22:53:45.391Z,5.10
2023-03-17T22:56:13.555Z,5.20
2023-03-17T22:58:40.452Z,4.82
2023-03-17T23:01:07.939Z,5.22
2023-03-17T23:03:35.031Z,5.00
2023-03-17T23:06:03.836Z,5.15
2023-03-17T23:08:34.928Z,4.90
2023-03-17T23:11:05.715Z,4.78
2023-03-17T23:13:32.204Z,4.78
2023-03-17T23:15:58.639Z,4.78
2023-03-17T23:18:25.341Z,4.70
2023-03-17T23:20:52.451Z,4.65
2023-03-17T23:23:19.915Z,4.88
2023-03-17T23:25:46.919Z,4.47
2023-03-17T23:28:15.481Z,4.30
2023-03-17T23:30:43.802Z,4.03
2023-03-17T23:33:10.466Z,4.57
2023-03-17T23:35:37.407Z,4.30
2023-03-17T23:38:04.406Z,4.45
2023-03-17T23:40:31.900Z,4.13
2023-03-17T23:42:58.580Z,4.10
2023-03-17T23:45:25.234Z,4.18
2023-03-17T23:47:52.754Z,4.68
2023-03-17T23:50:19.907Z,3.85
2023-03-17T23:52:47.158Z,4.57
2023-03-17T23:55:14.486Z,4.25
2023-03-17T23:57:41.488Z,3.88
